createdAt,value
2022-07-25T00:00:37.930Z,100.00
2022-07-25T00:03:06.300Z,100.00
2022-07-25T00:05:38.053Z,100.00
2022-07-25T00:08:06.402Z,100.00
2022-07-25T00:10:34.658Z,100.00
2022-07-25T00:13:02.243Z,100.00
2022-07-25T00:15:30.880Z,100.00
2022-07-25T00:17:58.582Z,100.00
2022-07-25T00:20:26.738Z,100.00
2022-07-25T00:22:54.227Z,100.00
2022-07-25T00:25:21.254Z,100.00
2022-07-25T00:27:47.947Z,100.00
2022-07-25T00:30:15.523Z,100.00
2022-07-25T00:32:44.308Z,100.00
2022-07-25T00:35:12.348Z,100.00
2022-07-25T00:37:39.373Z,100.00
2022-07-25T00:40:07.633Z,100.00
2022-07-25T00:42:35.366Z,100.00
2022-07-25T00:45:02.791Z,100.00
2022-07-25T00:47:30.842Z,100.00
2022-07-25T00:49:58.626Z,100.00
2022-07-25T00:52:25.862Z,100.00
2022-07-25T00:54:53.557Z,100.00
2022-07-25T00:57:21.847Z,100.00
2022-07-25T00:59:50.156Z,100.00
2022-07-25T01:02:18.272Z,100.00
2022-07-25T01:04:45.659Z,100.00
2022-07-25T01:07:13.346Z,100.00
2022-07-25T01:09:43.578Z,100.00
2022-07-25T01:12:11.719Z,100.00
2022-07-25T01:14:39.203Z,100.00
2022-07-25T01:17:07.247Z,100.00
2022-07-25T01:19:35.157Z,100.00
2022-07-25T01:22:02.211Z,100.00
2022-07-25T01:24:30.475Z,100.00
2022-07-25T01:26:58.618Z,100.00
2022-07-25T01:29:26.768Z,100.00
2022-07-25T01:31:54.466Z,100.00
2022-07-25T01:34:22.206Z,100.00
2022-07-25T01:36:50.176Z,100.00
2022-07-25T01:39:17.410Z,100.00
2022-07-25T01:41:45.841Z,100.00
2022-07-25T01:44:14.048Z,100.00
2022-07-25T01:46:41.332Z,100.00
2022-07-25T01:49:09.727Z,100.00
2022-07-25T01:51:36.913Z,100.00
2022-07-25T01:54:05.872Z,100.00
2022-07-25T01:56:38.568Z,100.00
2022-07-25T01:59:11.274Z,100.00
2022-07-25T02:01:39.393Z,100.00
2022-07-25T02:04:07.370Z,100.00
2022-07-25T02:06:35.490Z,100.00
2022-07-25T02:09:04.406Z,100.00
2022-07-25T02:11:32.196Z,100.00
2022-07-25T02:14:00.525Z,100.00
2022-07-25T02:16:28.909Z,100.00
2022-07-25T02:18:59.486Z,100.00
2022-07-25T02:21:27.703Z,100.00
2022-07-25T02:23:55.417Z,100.00
2022-07-25T02:26:23.916Z,100.00
2022-07-25T02:28:51.548Z,100.00
2022-07-25T02:31:20.332Z,100.00
2022-07-25T02:34:38.244Z,100.00
2022-07-25T02:41:44.678Z,100.00
2022-07-25T02:51:47.530Z,100.00
2022-07-25T02:54:55.935Z,100.00
2022-07-25T02:57:43.043Z,100.00
2022-07-25T03:04:24.704Z,100.00
2022-07-25T03:15:29.840Z,100.00
2022-07-25T03:22:26.099Z,100.00
2022-07-25T03:28:23.995Z,100.00
2022-07-25T03:31:10.873Z,100.00
2022-07-25T03:34:16.181Z,100.00
2022-07-25T03:50:23.837Z,100.00
2022-07-25T03:53:27.803Z,100.00
2022-07-25T03:56:33.083Z,100.00
2022-07-25T04:12:08.270Z,100.00
2022-07-25T04:14:35.973Z,100.00
2022-07-25T04:17:03.403Z,100.00
2022-07-25T04:19:32.172Z,100.00
2022-07-25T04:22:00.126Z,100.00
2022-07-25T04:29:20.121Z,100.00
2022-07-25T04:32:41.166Z,100.00
2022-07-25T04:35:59.042Z,100.00
2022-07-25T04:38:41.460Z,100.00
2022-07-25T04:47:46.169Z,100.00
2022-07-25T04:53:43.264Z,100.00
2022-07-25T04:56:10.102Z,100.00
2022-07-25T04:58:37.110Z,100.00
2022-07-25T05:01:04.580Z,100.00
2022-07-25T05:03:32.421Z,100.00
2022-07-25T05:06:00.310Z,100.00
2022-07-25T05:08:28.427Z,100.00
2022-07-25T05:10:55.809Z,99.57
2022-07-25T05:13:23.601Z,99.16
2022-07-25T05:15:51.081Z,96.01
2022-07-25T05:18:19.197Z,95.46
2022-07-25T05:20:46.487Z,97.30
2022-07-25T05:23:32.130Z,91.90
2022-07-25T05:26:22.174Z,89.03
2022-07-25T05:29:22.027Z,90.24
2022-07-25T05:32:19.112Z,90.28
2022-07-25T05:34:51.520Z,89.60
2022-07-25T05:37:44.650Z,91.32
2022-07-25T05:47:50.035Z,82.55
2022-07-25T05:50:57.352Z,81.17
2022-07-25T05:54:07.595Z,78.46
2022-07-25T05:57:01.736Z,78.08
2022-07-25T05:59:54.210Z,78.73
2022-07-25T06:02:48.140Z,80.56
2022-07-25T06:05:58.248Z,80.35
2022-07-25T06:08:31.230Z,89.42
2022-07-25T06:14:32.258Z,88.08
2022-07-25T06:16:58.965Z,82.24
2022-07-25T06:19:26.792Z,80.75
2022-07-25T06:22:08.104Z,79.96
2022-07-25T06:25:08.736Z,79.58
2022-07-25T06:28:29.952Z,79.93
2022-07-25T06:31:49.458Z,82.43
2022-07-25T06:34:19.694Z,82.53
2022-07-25T06:37:07.277Z,87.42
2022-07-25T06:40:16.257Z,86.39
2022-07-25T06:43:34.956Z,87.68
2022-07-25T06:54:08.556Z,100.00
2022-07-25T06:56:55.533Z,99.32
2022-07-25T06:59:35.492Z,100.00
2022-07-25T07:02:44.724Z,100.00
2022-07-25T07:17:01.235Z,100.00
2022-07-25T07:19:50.682Z,100.00
2022-07-25T07:23:16.891Z,100.00
2022-07-25T07:26:59.078Z,100.00
2022-07-25T07:32:49.742Z,100.00
2022-07-25T07:43:29.029Z,100.00
2022-07-25T07:46:17.896Z,100.00
2022-07-25T07:49:27.112Z,97.11
2022-07-25T07:52:24.058Z,98.04
2022-07-25T07:58:27.953Z,100.00
2022-07-25T08:01:23.182Z,100.00
2022-07-25T08:04:15.659Z,99.31
2022-07-25T08:06:43.206Z,100.00
2022-07-25T08:09:10.504Z,94.13
2022-07-25T08:11:38.106Z,94.96
2022-07-25T08:14:07.404Z,95.96
2022-07-25T08:16:36.015Z,99.99
2022-07-25T08:19:03.722Z,100.00
2022-07-25T08:21:32.495Z,100.00
2022-07-25T08:24:00.341Z,95.50
2022-07-25T08:26:31.929Z,94.11
2022-07-25T08:29:17.518Z,99.64
2022-07-25T08:31:46.484Z,95.67
2022-07-25T08:34:14.102Z,91.43
2022-07-25T08:36:41.027Z,94.61
2022-07-25T08:39:09.043Z,97.28
2022-07-25T08:41:36.693Z,92.30
2022-07-25T08:44:08.364Z,90.09
2022-07-25T08:46:37.508Z,88.91
2022-07-25T08:49:05.487Z,91.11
2022-07-25T08:51:34.301Z,89.37
2022-07-25T08:54:01.297Z,88.39
2022-07-25T08:56:29.225Z,86.78
2022-07-25T08:58:59.982Z,97.16
2022-07-25T09:01:31.655Z,85.88
2022-07-25T09:04:03.136Z,88.34
2022-07-25T09:06:30.609Z,87.92
2022-07-25T09:09:00.216Z,84.42
2022-07-25T09:11:35.423Z,83.42
2022-07-25T09:14:09.205Z,86.62
2022-07-25T09:16:41.065Z,85.20
2022-07-25T09:19:11.254Z,84.20
2022-07-25T09:21:40.082Z,86.01
2022-07-25T09:24:16.474Z,82.10
2022-07-25T09:26:49.571Z,78.66
2022-07-25T09:29:25.356Z,76.23
2022-07-25T09:31:55.351Z,77.57
2022-07-25T09:34:42.347Z,84.33
2022-07-25T09:37:12.579Z,81.51
2022-07-25T09:39:48.330Z,77.68
2022-07-25T09:42:17.605Z,80.14
2022-07-25T09:45:00.195Z,80.63
2022-07-25T09:48:00.911Z,79.92
2022-07-25T09:50:45.797Z,78.76
2022-07-25T09:56:49.206Z,77.18
2022-07-25T09:59:41.018Z,76.48
2022-07-25T10:02:51.986Z,78.09
2022-07-25T10:06:06.894Z,82.66
2022-07-25T10:09:00.678Z,82.07
2022-07-25T10:12:06.355Z,80.09
2022-07-25T10:15:48.880Z,85.60
2022-07-25T10:18:29.265Z,89.55
2022-07-25T10:21:39.155Z,87.51
2022-07-25T10:24:25.582Z,85.38
2022-07-25T10:27:30.005Z,86.93
2022-07-25T10:30:31.043Z,86.91
2022-07-25T10:33:50.779Z,88.33
2022-07-25T10:37:05.828Z,88.54
2022-07-25T10:40:00.165Z,93.21
2022-07-25T10:43:06.261Z,92.94
2022-07-25T10:46:31.701Z,87.37
2022-07-25T10:49:35.232Z,86.21
2022-07-25T10:56:04.897Z,84.16
2022-07-25T11:01:51.559Z,83.37
2022-07-25T11:04:43.096Z,89.43
2022-07-25T11:08:25.046Z,89.08
2022-07-25T11:11:19.963Z,94.72
2022-07-25T11:16:46.787Z,88.18
2022-07-25T11:22:44.847Z,91.15
2022-07-25T11:28:50.700Z,87.69
2022-07-25T11:31:44.112Z,88.98
2022-07-25T11:34:27.536Z,90.69
2022-07-25T11:37:48.721Z,90.81
2022-07-25T11:41:18.281Z,89.46
2022-07-25T11:46:56.825Z,90.45
2022-07-25T11:50:13.189Z,82.70
2022-07-25T11:52:45.884Z,83.74
2022-07-25T12:05:58.595Z,87.81
2022-07-25T12:08:36.299Z,90.78
2022-07-25T12:11:40.440Z,84.26
2022-07-25T12:14:23.268Z,86.94
2022-07-25T12:32:45.602Z,92.90
2022-07-25T12:35:23.673Z,82.76
2022-07-25T12:37:53.953Z,93.27
2022-07-25T12:40:36.125Z,89.74
2022-07-25T12:46:30.503Z,86.47
2022-07-25T12:49:28.149Z,88.08
2022-07-25T12:52:12.805Z,87.80
2022-07-25T12:54:57.282Z,86.45
2022-07-25T12:57:53.604Z,85.24
2022-07-25T13:00:24.563Z,87.87
2022-07-25T13:06:50.387Z,89.95
2022-07-25T13:09:37.265Z,85.06
2022-07-25T13:15:28.237Z,90.21
2022-07-25T13:17:58.246Z,88.65
2022-07-25T13:21:24.058Z,86.06
2022-07-25T13:33:21.600Z,85.90
2022-07-25T13:35:57.707Z,84.61
2022-07-25T13:38:57.418Z,81.72
2022-07-25T13:42:12.217Z,86.61
2022-07-25T13:51:02.358Z,89.58
2022-07-25T13:53:44.808Z,85.98
2022-07-25T14:00:45.174Z,86.07
2022-07-25T14:08:03.834Z,90.45
2022-07-25T14:10:53.487Z,94.05
2022-07-25T14:13:50.219Z,95.12
2022-07-25T14:19:05.100Z,92.13
2022-07-25T14:29:15.815Z,97.62
2022-07-25T14:31:54.901Z,96.99
2022-07-25T14:34:42.353Z,97.41
2022-07-25T14:37:15.045Z,98.90
2022-07-25T14:40:20.540Z,100.00
2022-07-25T14:43:06.309Z,100.00
2022-07-25T14:46:04.886Z,100.00
2022-07-25T14:48:44.035Z,100.00
2022-07-25T14:58:25.351Z,100.00
2022-07-25T15:00:52.191Z,100.00
2022-07-25T15:03:19.430Z,100.00
2022-07-25T15:05:46.959Z,100.00
2022-07-25T15:08:14.563Z,100.00
2022-07-25T15:10:42.012Z,100.00
2022-07-25T15:13:30.468Z,100.00
2022-07-25T15:15:59.176Z,100.00
2022-07-25T15:18:26.170Z,100.00
2022-07-25T15:20:53.644Z,100.00
2022-07-25T15:23:21.143Z,100.00
2022-07-25T15:26:05.023Z,100.00
2022-07-25T15:28:37.974Z,100.00
2022-07-25T15:31:07.623Z,100.00
2022-07-25T15:33:35.118Z,100.00
2022-07-25T15:36:02.535Z,100.00
2022-07-25T15:38:31.354Z,100.00
2022-07-25T15:40:58.444Z,100.00
2022-07-25T15:43:26.050Z,100.00
2022-07-25T15:45:53.543Z,100.00
2022-07-25T15:48:21.447Z,100.00
2022-07-25T15:50:51.914Z,100.00
2022-07-25T15:53:18.910Z,100.00
2022-07-25T15:55:46.290Z,100.00
2022-07-25T15:58:14.632Z,100.00
2022-07-25T16:00:42.385Z,100.00
2022-07-25T16:03:10.238Z,100.00
2022-07-25T16:05:38.630Z,100.00
2022-07-25T16:08:08.743Z,100.00
2022-07-25T16:10:37.233Z,100.00
2022-07-25T16:13:04.896Z,100.00
2022-07-25T16:15:32.387Z,100.00
2022-07-25T16:18:02.527Z,100.00
2022-07-25T16:20:32.434Z,100.00
2022-07-25T16:23:01.016Z,100.00
2022-07-25T16:25:29.121Z,100.00
2022-07-25T16:27:56.810Z,100.00
2022-07-25T16:30:24.182Z,100.00
2022-07-25T16:32:52.194Z,100.00
2022-07-25T16:35:20.486Z,100.00
2022-07-25T16:37:48.252Z,100.00
2022-07-25T16:40:15.445Z,100.00
2022-07-25T16:42:43.274Z,100.00
2022-07-25T16:45:11.337Z,100.00
2022-07-25T16:47:41.460Z,100.00
2022-07-25T16:50:09.036Z,100.00
2022-07-25T16:52:36.387Z,100.00
2022-07-25T16:55:03.917Z,100.00
2022-07-25T16:57:31.415Z,100.00
2022-07-25T16:59:58.217Z,100.00
2022-07-25T17:02:29.478Z,100.00
2022-07-25T17:04:57.016Z,100.00
2022-07-25T17:07:24.812Z,100.00
2022-07-25T17:09:52.827Z,100.00
2022-07-25T17:12:20.543Z,100.00
2022-07-25T17:14:47.433Z,100.00
2022-07-25T17:17:15.749Z,100.00
2022-07-25T17:19:43.317Z,100.00
2022-07-25T17:22:12.201Z,100.00
2022-07-25T17:24:40.147Z,100.00
2022-07-25T17:27:08.870Z,100.00
2022-07-25T17:29:36.585Z,100.00
2022-07-25T17:32:06.057Z,100.00
2022-07-25T17:34:33.299Z,100.00
2022-07-25T17:37:03.304Z,100.00
2022-07-25T17:39:30.913Z,100.00
2022-07-25T17:41:58.658Z,100.00
2022-07-25T17:44:26.250Z,100.00
2022-07-25T17:46:54.246Z,100.00
2022-07-25T17:49:22.143Z,100.00
2022-07-25T17:51:49.449Z,100.00
2022-07-25T17:54:17.051Z,100.00
2022-07-25T17:56:45.565Z,100.00
2022-07-25T17:59:13.189Z,100.00
2022-07-25T18:01:40.355Z,100.00
2022-07-25T18:04:08.148Z,100.00
2022-07-25T18:06:35.326Z,100.00
2022-07-25T18:09:02.228Z,100.00
2022-07-25T18:11:30.243Z,100.00
2022-07-25T18:14:00.796Z,100.00
2022-07-25T18:16:28.891Z,100.00
2022-07-25T18:18:56.814Z,100.00
2022-07-25T18:21:25.261Z,100.00
2022-07-25T18:23:52.406Z,100.00
2022-07-25T18:26:19.309Z,100.00
2022-07-25T18:28:46.796Z,100.00
2022-07-25T18:31:14.281Z,100.00
2022-07-25T18:33:42.879Z,100.00
2022-07-25T18:36:10.435Z,100.00
2022-07-25T18:38:37.644Z,100.00
2022-07-25T18:41:28.622Z,100.00
2022-07-25T18:43:53.158Z,100.00
2022-07-25T18:46:20.611Z,100.00
2022-07-25T18:48:47.981Z,100.00
2022-07-25T18:51:15.368Z,100.00
2022-07-25T18:53:47.386Z,100.00
2022-07-25T18:56:16.389Z,100.00
2022-07-25T18:58:45.203Z,100.00
2022-07-25T19:01:12.587Z,100.00
2022-07-25T19:04:08.667Z,100.00
2022-07-25T19:06:38.918Z,100.00
2022-07-25T19:09:36.848Z,100.00
2022-07-25T19:12:32.819Z,100.00
2022-07-25T19:15:17.140Z,100.00
2022-07-25T19:19:20.423Z,100.00
2022-07-25T19:22:32.979Z,100.00
2022-07-25T19:25:16.980Z,100.00
2022-07-25T19:28:35.838Z,100.00
2022-07-25T19:31:25.019Z,100.00
2022-07-25T19:34:13.497Z,100.00
2022-07-25T19:37:38.860Z,100.00
2022-07-25T19:40:09.603Z,100.00
2022-07-25T19:43:13.553Z,100.00
2022-07-25T19:45:56.533Z,100.00
2022-07-25T19:48:28.438Z,100.00
2022-07-25T19:51:03.947Z,100.00
2022-07-25T19:54:03.547Z,100.00
2022-07-25T19:56:54.523Z,100.00
2022-07-25T19:59:35.691Z,100.00
2022-07-25T20:02:16.747Z,100.00
2022-07-25T20:04:52.144Z,100.00
2022-07-25T20:07:31.398Z,100.00
2022-07-25T20:10:11.972Z,100.00
2022-07-25T20:13:01.605Z,100.00
2022-07-25T20:16:05.310Z,100.00
2022-07-25T20:21:52.661Z,100.00
2022-07-25T20:24:32.553Z,100.00
2022-07-25T20:27:04.437Z,100.00
2022-07-25T20:35:54.906Z,100.00
2022-07-25T20:38:57.027Z,100.00
2022-07-25T20:41:46.121Z,100.00
2022-07-25T20:44:31.836Z,100.00
2022-07-25T20:47:30.267Z,100.00
2022-07-25T20:50:43.516Z,100.00
2022-07-25T20:54:19.573Z,100.00
2022-07-25T20:58:12.405Z,100.00
2022-07-25T21:01:03.368Z,100.00
2022-07-25T21:09:39.466Z,100.00
2022-07-25T21:12:32.731Z,100.00
2022-07-25T21:15:09.810Z,100.00
2022-07-25T21:17:47.878Z,100.00
2022-07-25T21:20:24.139Z,100.00
2022-07-25T21:26:47.085Z,100.00
2022-07-25T21:32:09.941Z,100.00
2022-07-25T21:41:20.677Z,100.00
2022-07-25T21:43:53.502Z,100.00
2022-07-25T21:46:39.930Z,100.00
2022-07-25T21:50:01.107Z,100.00
2022-07-25T21:52:44.635Z,100.00
2022-07-25T21:55:26.154Z,100.00
2022-07-25T21:58:28.618Z,100.00
2022-07-25T22:00:54.805Z,100.00
2022-07-25T22:03:22.963Z,100.00
2022-07-25T22:05:49.926Z,100.00
2022-07-25T22:08:17.825Z,100.00
2022-07-25T22:10:45.501Z,100.00
2022-07-25T22:13:14.720Z,100.00
2022-07-25T22:15:44.905Z,100.00
